• Join FlightAware (Why Join?)
  • Login
  • US Flag GB Flag 
00:38 EDT


 

Airport Tracker/Info


-or-


 

Live Flight TrackerFlight Track Log ✈ TAM8090 ✈ 22-Apr-2013 ✈ SBGR / GRU - KMIA

Flight Track Log - Related Links

Times and Time Zones

All times are in EDT time to prevent confusion due to time zone crossing. See the TAM8090 flight status page for this flight to view local times or setup timezone preferences in your user account.

Time Position Orientation Groundspeed Altitude Reporting Facility
EDT Latitude Longitude Course Direction KTS MPH feet Rate Location/Type
23:11 -23.4220 -46.4390 77° East 187 215 3,100  Level FlightAware
23:11 -23.4190 -46.4270 75° East 189 217 3,600 1,980 Climbing FlightAware
23:12 -23.4230 -46.4120 106° East 187 215 4,100 1,980 Climbing FlightAware
23:12 -23.4330 -46.4040 144° Southeast 187 215 4,600 1,800 Climbing FlightAware
23:12 -23.4550 -46.4110 196° South 210 242 5,300 1,200 Climbing FlightAware
23:13 -23.4740 -46.4390 234° Southwest 247 284 5,700 840 Climbing FlightAware
23:13 -23.4920 -46.4670 235° Southwest 277 319 6,100 1,380 Climbing FlightAware
23:14 -23.5170 -46.5020 232° Southwest 294 338 7,000 2,100 Climbing FlightAware
23:14 -23.5420 -46.5370 232° Southwest 295 339 8,200 2,040 Climbing FlightAware
23:15 -23.5620 -46.5650 232° Southwest 305 351 8,900 1,920 Climbing FlightAware
23:15 -23.5730 -46.5870 241° Southwest 309 356 9,500 2,220 Climbing FlightAware
23:15 -23.5770 -46.6340 265° West 315 362 10,600 1,320 Climbing FlightAware
23:17 -23.5590 -46.8360 276° West 408 470 12,700 1,680 Climbing FlightAware
23:20 -23.3157 -47.0240 325° Northwest  Level Estimated
23:20 -23.5290 -47.1540 325° Northwest 434 499 18,100  Level FlightAware
23:21 -23.5080 -47.3530 277° West 454 522 20,800 1,800 Climbing FlightAware
23:22 -23.4650 -47.4400 298° West 463 533 22,000 1,740 Climbing FlightAware
23:23 -23.4100 -47.5210 306° West 465 535 23,300 1,620 Climbing FlightAware
23:23 -23.3560 -47.6000 307° West 474 545 24,300 1,620 Climbing FlightAware
23:24 -23.3030 -47.6780 306° West 482 555 25,500 1,680 Climbing FlightAware
23:25 -23.2440 -47.7650 306° West 487 560 26,700 1,620 Climbing FlightAware
23:25 -23.1880 -47.8460 307° West 491 565 27,800 1,620 Climbing FlightAware
23:26 -23.1260 -47.9370 307° West 496 571 29,000 1,380 Climbing FlightAware
23:27 -23.0710 -48.0170 307° West 502 578 29,800 1,620 Climbing FlightAware
23:27 -23.0150 -48.0980 307° West 493 567 31,200 1,500 Climbing FlightAware
23:28 -22.9550 -48.1850 307° West 486 559 32,000 540 Climbing FlightAware
23:29 -22.9010 -48.2630 307° West 485 558 32,000  Level FlightAware
23:30 -22.8420 -48.3490 307° West 486 559 32,000  Level FlightAware
23:30 -22.7880 -48.4270 307° West 487 560 32,000  Level FlightAware
23:31 -22.7320 -48.5080 307° West 488 562 32,000  Level FlightAware
23:32 -22.6720 -48.5940 307° West 488 562 32,000  Level FlightAware
23:32 -22.6190 -48.6710 307° West 488 562 32,000  Level FlightAware
23:33 -22.5650 -48.7490 307° West 489 563 32,000  Level FlightAware
23:34 -22.5030 -48.8380 307° West 490 564 32,000  Level FlightAware
23:34 -22.4480 -48.9160 307° West 489 563 32,000  Level FlightAware
23:35 -22.3840 -49.0070 307° West 489 563 32,000  Level FlightAware
23:36 -22.3300 -49.0830 308° West 488 562 32,000  Level FlightAware
23:37 -22.2630 -49.1650 311° West 485 558 32,000  Level FlightAware
23:37 -22.2010 -49.2340 314° West 485 558 32,000  Level FlightAware
23:38 -22.1390 -49.3040 314° West 484 557 32,000  Level FlightAware
23:39 -22.0680 -49.3820 314° West 484 557 32,000  Level FlightAware
23:39 -22.0050 -49.4520 314° West 484 557 32,000  Level FlightAware
23:40 -21.9360 -49.5300 314° West 484 557 32,000  Level FlightAware
23:41 -21.8750 -49.5980 314° West 483 556 32,000  Level FlightAware
23:41 -21.8130 -49.6660 314° West 482 555 32,000  Level FlightAware
23:42 -21.7400 -49.7470 314° West 482 555 32,000  Level FlightAware
23:43 -21.6790 -49.8140 314° West 482 555 32,000  Level FlightAware
23:44 -21.6160 -49.8840 314° West 483 556 32,000  Level FlightAware
23:44 -21.5480 -49.9600 314° West 483 556 32,000  Level FlightAware
23:45 -21.4850 -50.0280 315° West 480 552 32,000  Level FlightAware
23:46 -21.4150 -50.1060 314° West 478 550 32,000  Level FlightAware
23:46 -21.3520 -50.1760 314° West 477 549 32,000  Level FlightAware
23:47 -21.2880 -50.2480 314° West 475 547 32,000  Level FlightAware
23:48 -21.2310 -50.3120 314° West 475 547 32,000  Level FlightAware
23:48 -21.1640 -50.3850 315° West 471 542 32,000  Level FlightAware
23:49 -21.0940 -50.4630 314° West 472 543 32,000  Level FlightAware
23:50 -21.0330 -50.5300 314° West 471 542 32,000  Level FlightAware
23:51 -20.9650 -50.6040 315° West 471 542 32,000  Level FlightAware
23:51 -20.9160 -50.6590 314° West 469 540 32,000  Level FlightAware
23:52 -20.8460 -50.7360 314° West 468 539 32,000  Level FlightAware
23:53 -20.7910 -50.7940 315° West 469 540 32,000  Level FlightAware
23:54 -20.7350 -50.8530 315° West 469 540 32,000  Level FlightAware
23:55 -20.5850 -51.0140 315° West 466 536 32,000  Level FlightAware
23:55 -20.5300 -51.0750 314° West 466 536 32,000  Level FlightAware
23:56 -20.4790 -51.1310 314° West 466 536 32,000  Level FlightAware
23:57 -20.4280 -51.1870 314° West 466 536 32,000  Level FlightAware
23:58 -20.3650 -51.2570 314° West 466 536 32,000  Level FlightAware
23:58 -20.3140 -51.3140 314° West 466 536 32,000  Level FlightAware
23:59 -20.2630 -51.3700 314° West 466 536 32,000  Level FlightAware
00:00 -20.2120 -51.4260 314° West 466 536 32,000  Level FlightAware
00:00 -20.1610 -51.4820 314° West 466 536 32,000  Level FlightAware
00:01 -20.1100 -51.5380 314° West 466 536 32,000  Level FlightAware
00:02 -20.0460 -51.6090 314° West 466 536 32,000  Level FlightAware
00:02 -19.9950 -51.6650 314° West 466 536 32,000  Level FlightAware
00:03 -19.9450 -51.7210 314° West 466 536 32,000  Level FlightAware
00:04 -19.8940 -51.7770 314° West 466 536 32,000  Level FlightAware
00:05 -19.8300 -51.8470 314° West 466 536 32,000  Level FlightAware
00:07 -19.6202 -51.9879 328° Northwest  Level Estimated
00:08 -19.5107 -52.0612 328° Northwest  Level Estimated
00:09 -19.4011 -52.1345 328° Northwest  Level Estimated
00:10 -19.2916 -52.2076 328° Northwest  Level Estimated
00:11 -19.1820 -52.2807 328° Northwest  Level Estimated
00:12 -19.0723 -52.3536 328° Northwest  Level Estimated
00:13 -18.9627 -52.4265 328° Northwest  Level Estimated
00:14 -18.8530 -52.4992 328° Northwest  Level Estimated
00:15 -18.7433 -52.5719 328° Northwest  Level Estimated
00:16 -18.6336 -52.6445 328° Northwest  Level Estimated
00:17 -18.5238 -52.7169 328° Northwest  Level Estimated
00:18 -18.4140 -52.7893 328° Northwest  Level Estimated
00:19 -18.3042 -52.8616 328° Northwest  Level Estimated
00:20 -18.1943 -52.9338 328° Northwest  Level Estimated
00:21 -18.0844 -53.0059 328° Northwest  Level Estimated
00:22 -17.9746 -53.0780 328° Northwest  Level Estimated
00:23 -17.8646 -53.1499 328° Northwest  Level Estimated
00:24 -17.7547 -53.2217 328° Northwest  Level Estimated
00:25 -17.6447 -53.2935 328° Northwest  Level Estimated
00:26 -17.5347 -53.3652 328° Northwest  Level Estimated
00:27 -17.4246 -53.4367 328° Northwest  Level Estimated
00:28 -17.3146 -53.5082 328° Northwest  Level Estimated
00:29 -17.2045 -53.5796 328° Northwest  Level Estimated
00:30 -17.0944 -53.6510 328° Northwest  Level Estimated
00:31 -16.9843 -53.7222 328° Northwest  Level Estimated
00:32 -16.8741 -53.7933 328° Northwest  Level Estimated
00:33 -16.7639 -53.8644 328° Northwest  Level Estimated
00:34 -16.6537 -53.9354 328° Northwest  Level Estimated
00:35 -16.5435 -54.0063 328° Northwest  Level Estimated
00:36 -16.4332 -54.0771 328° Northwest  Level Estimated
00:37 -16.3229 -54.1479 328° Northwest  Level Estimated
00:38 -16.2126 -54.2186 328° Northwest  Level Estimated
00:39 -16.1023 -54.2892 328° Northwest  Level Estimated
00:40 -15.9920 -54.3597 328° Northwest  Level Estimated
00:41 -15.8816 -54.4301 328° Northwest  Level Estimated
00:42 -15.7712 -54.5004 328° Northwest  Level Estimated
00:43 -15.6608 -54.5707 328° Northwest  Level Estimated
00:44 -15.5503 -54.6409 329° Northwest  Level Estimated
00:45 -15.4399 -54.7110 329° Northwest  Level Estimated
00:46 -15.3294 -54.7811 329° Northwest  Level Estimated
00:47 -15.2189 -54.8511 329° Northwest  Level Estimated
00:48 -15.1084 -54.9210 329° Northwest  Level Estimated
00:49 -14.9978 -54.9908 329° Northwest  Level Estimated
00:50 -14.8872 -55.0606 329° Northwest  Level Estimated
00:51 -14.7767 -55.1303 329° Northwest  Level Estimated
00:52 -14.6660 -55.1999 329° Northwest  Level Estimated
00:53 -14.5554 -55.2694 329° Northwest  Level Estimated
00:54 -14.4448 -55.3389 329° Northwest  Level Estimated
00:55 -14.3341 -55.4083 329° Northwest  Level Estimated
00:56 -14.2234 -55.4777 329° Northwest  Level Estimated
00:57 -14.1127 -55.5469 329° Northwest  Level Estimated
00:58 -14.0020 -55.6161 329° Northwest  Level Estimated
00:59 -13.8912 -55.6853 329° Northwest  Level Estimated
01:00 -13.7804 -55.7543 329° Northwest  Level Estimated
01:01 -13.6697 -55.8233 329° Northwest  Level Estimated
01:02 -13.5588 -55.8923 329° Northwest  Level Estimated
01:03 -13.4480 -55.9612 329° Northwest  Level Estimated
01:04 -13.3372 -56.0300 329° Northwest  Level Estimated
01:05 -13.2263 -56.0987 329° Northwest  Level Estimated
01:06 -13.1154 -56.1674 329° Northwest  Level Estimated
01:07 -13.0045 -56.2360 329° Northwest  Level Estimated
01:08 -12.8936 -56.3046 329° Northwest  Level Estimated
01:09 -12.7826 -56.3731 329° Northwest  Level Estimated
01:10 -12.6717 -56.4415 329° Northwest  Level Estimated
01:11 -12.5607 -56.5099 329° Northwest  Level Estimated
01:12 -12.4497 -56.5782 329° Northwest  Level Estimated
01:13 -12.3387 -56.6465 329° Northwest  Level Estimated
01:14 -12.2277 -56.7147 329° Northwest  Level Estimated
01:15 -12.1166 -56.7829 329° Northwest  Level Estimated
01:16 -12.0056 -56.8510 329° Northwest  Level Estimated
01:17 -11.8945 -56.9190 329° Northwest  Level Estimated
01:18 -11.7834 -56.9870 329° Northwest  Level Estimated
01:19 -11.6723 -57.0549 329° Northwest  Level Estimated
01:20 -11.5612 -57.1228 329° Northwest  Level Estimated
01:21 -11.4500 -57.1906 329° Northwest  Level Estimated
01:22 -11.3389 -57.2584 329° Northwest  Level Estimated
01:23 -11.2277 -57.3261 329° Northwest  Level Estimated
01:24 -11.1165 -57.3937 329° Northwest  Level Estimated
01:25 -11.0053 -57.4613 329° Northwest  Level Estimated
01:26 -10.8941 -57.5289 329° Northwest  Level Estimated
01:27 -10.7829 -57.5964 329° Northwest  Level Estimated
01:28 -10.6716 -57.6639 329° Northwest  Level Estimated
01:29 -10.5604 -57.7313 329° Northwest  Level Estimated
01:30 -10.4491 -57.7986 329° Northwest  Level Estimated
01:31 -10.3378 -57.8660 329° Northwest  Level Estimated
01:32 -10.2265 -57.9332 329° Northwest  Level Estimated
01:33 -10.1152 -58.0004 329° Northwest  Level Estimated
01:34 -10.0038 -58.0676 329° Northwest  Level Estimated
01:35 -9.8925 -58.1347 329° Northwest  Level Estimated
01:36 -9.7811 -58.2018 329° Northwest  Level Estimated
01:37 -9.6698 -58.2688 329° Northwest  Level Estimated
01:38 -9.5584 -58.3358 329° Northwest  Level Estimated
01:39 -9.4470 -58.4028 329° Northwest  Level Estimated
01:40 -9.3356 -58.4697 329° Northwest  Level Estimated
01:41 -9.2242 -58.5365 329° Northwest  Level Estimated
01:42 -9.1127 -58.6034 329° Northwest  Level Estimated
01:43 -9.0013 -58.6701 329° Northwest  Level Estimated
01:44 -8.8898 -58.7369 329° Northwest  Level Estimated
01:45 -8.7784 -58.8036 329° Northwest  Level Estimated
01:46 -8.6669 -58.8702 329° Northwest  Level Estimated
01:47 -8.5554 -58.9368 329° Northwest  Level Estimated
01:48 -8.4439 -59.0034 329° Northwest  Level Estimated
01:49 -8.3324 -59.0699 329° Northwest  Level Estimated
01:50 -8.2208 -59.1364 329° Northwest  Level Estimated
01:51 -8.1093 -59.2029 329° Northwest  Level Estimated
01:52 -7.9978 -59.2693 329° Northwest  Level Estimated
01:53 -7.8862 -59.3357 329° Northwest  Level Estimated
01:54 -7.7746 -59.4021 329° Northwest  Level Estimated
01:55 -7.6631 -59.4684 329° Northwest  Level Estimated
01:56 -7.5515 -59.5347 330° Northwest  Level Estimated
01:57 -7.4399 -59.6009 330° Northwest  Level Estimated
01:58 -7.3282 -59.6671 330° Northwest  Level Estimated
01:59 -7.2166 -59.7333 330° Northwest  Level Estimated
02:00 -7.1050 -59.7994 330° Northwest  Level Estimated
02:01 -6.9934 -59.8656 330° Northwest  Level Estimated
02:02 -6.8817 -59.9317 330° Northwest  Level Estimated
02:03 -6.7701 -59.9977 330° Northwest  Level Estimated
02:04 -6.6584 -60.0637 330° Northwest  Level Estimated
02:05 -6.5467 -60.1297 330° Northwest  Level Estimated
02:06 -6.4350 -60.1957 330° Northwest  Level Estimated
02:07 -6.3233 -60.2616 330° Northwest  Level Estimated
02:08 -6.2116 -60.3275 330° Northwest  Level Estimated
02:09 -6.0999 -60.3934 330° Northwest  Level Estimated
02:10 -5.9882 -60.4593 330° Northwest  Level Estimated
02:11 -5.8765 -60.5251 330° Northwest  Level Estimated
02:12 -5.7648 -60.5909 330° Northwest  Level Estimated
02:13 -5.6530 -60.6566 330° Northwest  Level Estimated
02:14 -5.5413 -60.7224 330° Northwest  Level Estimated
02:15 -5.4295 -60.7881 330° Northwest  Level Estimated
02:16 -5.3178 -60.8538 330° Northwest  Level Estimated
02:17 -5.2060 -60.9195 330° Northwest  Level Estimated
02:18 -5.0942 -60.9851 330° Northwest  Level Estimated
02:19 -4.9825 -61.0508 330° Northwest  Level Estimated
02:20 -4.8707 -61.1164 330° Northwest  Level Estimated
02:21 -4.7589 -61.1819 330° Northwest  Level Estimated
02:22 -4.6471 -61.2475 330° Northwest  Level Estimated
02:23 -4.5353 -61.3130 330° Northwest  Level Estimated
02:24 -4.4235 -61.3786 330° Northwest  Level Estimated
02:25 -4.3116 -61.4441 330° Northwest  Level Estimated
02:26 -4.1998 -61.5095 330° Northwest  Level Estimated
02:27 -4.0880 -61.5750 330° Northwest  Level Estimated
02:28 -3.9762 -61.6404 330° Northwest  Level Estimated
02:29 -3.8643 -61.7059 330° Northwest  Level Estimated
02:30 -3.7525 -61.7713 330° Northwest  Level Estimated
02:31 -3.6406 -61.8367 330° Northwest  Level Estimated
02:32 -3.5288 -61.9021 330° Northwest  Level Estimated
02:33 -3.4169 -61.9674 330° Northwest  Level Estimated
02:34 -3.3051 -62.0328 330° Northwest  Level Estimated
02:35 -3.1932 -62.0981 330° Northwest  Level Estimated
02:36 -3.0813 -62.1634 330° Northwest  Level Estimated
02:37 -2.9694 -62.2287 330° Northwest  Level Estimated
02:38 -2.8576 -62.2940 330° Northwest  Level Estimated
02:39 -2.7457 -62.3593 330° Northwest  Level Estimated
02:40 -2.6338 -62.4245 330° Northwest  Level Estimated
02:41 -2.5219 -62.4898 330° Northwest  Level Estimated
02:42 -2.4100 -62.5550 330° Northwest  Level Estimated
02:43 -2.2981 -62.6203 330° Northwest  Level Estimated
02:44 -2.1862 -62.6855 330° Northwest  Level Estimated
02:45 -2.0743 -62.7507 330° Northwest  Level Estimated
02:46 -1.9624 -62.8159 330° Northwest  Level Estimated
02:47 -1.8505 -62.8811 330° Northwest  Level Estimated
02:48 -1.7386 -62.9463 330° Northwest  Level Estimated
02:49 -1.6267 -63.0114 330° Northwest  Level Estimated
02:50 -1.5148 -63.0766 330° Northwest  Level Estimated
02:51 -1.4029 -63.1418 330° Northwest  Level Estimated
02:52 -1.2909 -63.2069 330° Northwest  Level Estimated
02:53 -1.1790 -63.2721 330° Northwest  Level Estimated
02:54 -1.0671 -63.3372 330° Northwest  Level Estimated
02:55 -0.9552 -63.4024 330° Northwest  Level Estimated
02:56 -0.8433 -63.4675 330° Northwest  Level Estimated
02:57 -0.7313 -63.5326 330° Northwest  Level Estimated
02:58 -0.6194 -63.5978 330° Northwest  Level Estimated
02:59 -0.5075 -63.6629 330° Northwest  Level Estimated
03:00 -0.3956 -63.7280 330° Northwest  Level Estimated
03:01 -0.2836 -63.7932 330° Northwest  Level Estimated
03:02 -0.1717 -63.8583 330° Northwest  Level Estimated
03:03 -0.0598 -63.9234 330° Northwest  Level Estimated
03:04 0.0522 -63.9885 330° Northwest  Level Estimated
03:05 0.1641 -64.0536 330° Northwest  Level Estimated
03:06 0.2760 -64.1188 330° Northwest  Level Estimated
03:07 0.3880 -64.1839 330° Northwest  Level Estimated
03:08 0.4999 -64.2490 330° Northwest  Level Estimated
03:09 0.6118 -64.3141 330° Northwest  Level Estimated
03:10 0.7237 -64.3792 330° Northwest  Level Estimated
03:11 0.8357 -64.4444 330° Northwest  Level Estimated
03:12 0.9476 -64.5095 330° Northwest  Level Estimated
03:13 1.0595 -64.5747 330° Northwest  Level Estimated
03:14 1.1714 -64.6398 330° Northwest  Level Estimated
03:15 1.2833 -64.7050 330° Northwest  Level Estimated
03:16 1.3952 -64.7701 330° Northwest  Level Estimated
03:17 1.5072 -64.8353 330° Northwest  Level Estimated
03:18 1.6191 -64.9005 330° Northwest  Level Estimated
03:19 1.7310 -64.9656 330° Northwest  Level Estimated
03:20 1.8429 -65.0308 330° Northwest  Level Estimated
03:21 1.9548 -65.0960 330° Northwest  Level Estimated
03:22 2.0667 -65.1612 330° Northwest  Level Estimated
03:23 2.1786 -65.2264 330° Northwest  Level Estimated
03:24 2.2905 -65.2916 330° Northwest  Level Estimated
03:25 2.4024 -65.3569 330° Northwest  Level Estimated
03:26 2.5143 -65.4221 330° Northwest  Level Estimated
03:27 2.6262 -65.4874 330° Northwest  Level Estimated
03:28 2.7381 -65.5526 330° Northwest  Level Estimated
03:29 2.8500 -65.6179 330° Northwest  Level Estimated
03:30 2.9618 -65.6832 330° Northwest  Level Estimated
03:31 3.0737 -65.7485 330° Northwest  Level Estimated
03:32 3.1856 -65.8138 330° Northwest  Level Estimated
03:33 3.2975 -65.8791 330° Northwest  Level Estimated
03:34 3.4093 -65.9445 330° Northwest  Level Estimated
03:35 3.5212 -66.0098 330° Northwest  Level Estimated
03:36 3.6330 -66.0752 330° Northwest  Level Estimated
03:37 3.7449 -66.1406 330° Northwest  Level Estimated
03:38 3.8567 -66.2060 330° Northwest  Level Estimated
03:39 3.9685 -66.2714 330° Northwest  Level Estimated
03:40 4.0804 -66.3369 330° Northwest  Level Estimated
03:41 4.1922 -66.4023 330° Northwest  Level Estimated
03:42 4.3040 -66.4678 330° Northwest  Level Estimated
03:43 4.4159 -66.5333 330° Northwest  Level Estimated
03:44 4.5277 -66.5988 330° Northwest  Level Estimated
03:45 4.6395 -66.6644 330° Northwest  Level Estimated
03:46 4.7513 -66.7299 330° Northwest  Level Estimated
03:47 4.8631 -66.7955 330° Northwest  Level Estimated
03:48 4.9749 -66.8611 330° Northwest  Level Estimated
03:49 5.0866 -66.9268 330° Northwest  Level Estimated
03:50 5.1984 -66.9924 330° Northwest  Level Estimated
03:51 5.3102 -67.0581 330° Northwest  Level Estimated
03:52 5.4219 -67.1238 330° Northwest  Level Estimated
03:53 5.5337 -67.1895 330° Northwest  Level Estimated
03:54 5.6454 -67.2552 330° Northwest  Level Estimated
03:55 5.7572 -67.3210 330° Northwest  Level Estimated
03:56 5.8689 -67.3868 330° Northwest  Level Estimated
03:57 5.9806 -67.4526 330° Northwest  Level Estimated
03:58 6.0923 -67.5185 330° Northwest  Level Estimated
03:59 6.2041 -67.5844 330° Northwest  Level Estimated
04:00 6.3158 -67.6503 330° Northwest  Level Estimated
04:01 6.4274 -67.7162 330° Northwest  Level Estimated
04:02 6.5391 -67.7821 330° Northwest  Level Estimated
04:03 6.6508 -67.8481 330° Northwest  Level Estimated
04:04 6.7625 -67.9141 330° Northwest  Level Estimated
04:05 6.8741 -67.9802 330° Northwest  Level Estimated
04:06 6.9858 -68.0463 330° Northwest  Level Estimated
04:07 7.0974 -68.1124 330° Northwest  Level Estimated
04:08 7.2090 -68.1785 330° Northwest  Level Estimated
04:09 7.3207 -68.2447 330° Northwest  Level Estimated
04:10 7.4323 -68.3109 330° Northwest  Level Estimated
04:11 7.5439 -68.3772 330° Northwest  Level Estimated
04:12 7.6555 -68.4435 330° Northwest  Level Estimated
04:13 7.7670 -68.5098 330° Northwest  Level Estimated
04:14 7.8786 -68.5761 329° Northwest  Level Estimated
04:15 7.9902 -68.6425 329° Northwest  Level Estimated
04:16 8.1017 -68.7089 329° Northwest  Level Estimated
04:17 8.2133 -68.7754 329° Northwest  Level Estimated
04:18 8.3248 -68.8419 329° Northwest  Level Estimated
04:19 8.4363 -68.9084 329° Northwest  Level Estimated
04:20 8.5478 -68.9750 329° Northwest  Level Estimated
04:21 8.6593 -69.0416 329° Northwest  Level Estimated
04:22 8.7708 -69.1083 329° Northwest  Level Estimated
04:23 8.8822 -69.1749 329° Northwest  Level Estimated
04:24 8.9937 -69.2417 329° Northwest  Level Estimated
04:25 9.1052 -69.3084 329° Northwest  Level Estimated
04:26 9.2166 -69.3753 329° Northwest  Level Estimated
04:27 9.3280 -69.4421 329° Northwest  Level Estimated
04:28 9.4394 -69.5090 329° Northwest  Level Estimated
04:29 9.5508 -69.5760 329° Northwest  Level Estimated
04:30 9.6622 -69.6430 329° Northwest  Level Estimated
04:31 9.7736 -69.7100 329° Northwest  Level Estimated
04:32 9.8849 -69.7771 329° Northwest  Level Estimated
04:33 9.9963 -69.8442 329° Northwest  Level Estimated
04:34 10.1076 -69.9113 329° Northwest  Level Estimated
04:35 10.2189 -69.9786 329° Northwest  Level Estimated
04:36 10.3302 -70.0458 329° Northwest  Level Estimated
04:37 10.4415 -70.1131 329° Northwest  Level Estimated
04:38 10.5528 -70.1805 329° Northwest  Level Estimated
04:39 10.6641 -70.2479 329° Northwest  Level Estimated
04:40 10.7753 -70.3154 329° Northwest  Level Estimated
04:41 10.8865 -70.3829 329° Northwest  Level Estimated
04:42 10.9978 -70.4504 329° Northwest  Level Estimated
04:43 11.1089 -70.5180 329° Northwest  Level Estimated
04:44 11.2201 -70.5857 329° Northwest  Level Estimated
04:45 11.3313 -70.6534 329° Northwest  Level Estimated
04:46 11.4425 -70.7212 329° Northwest  Level Estimated
04:47 11.5536 -70.7890 329° Northwest  Level Estimated
04:48 11.6647 -70.8568 329° Northwest  Level Estimated
04:49 11.7758 -70.9248 329° Northwest  Level Estimated
04:50 11.8869 -70.9927 329° Northwest  Level Estimated
04:51 11.9980 -71.0608 329° Northwest  Level Estimated
04:52 12.1091 -71.1289 329° Northwest  Level Estimated
04:53 12.2201 -71.1970 329° Northwest  Level Estimated
04:54 12.3311 -71.2652 329° Northwest  Level Estimated
04:55 12.4422 -71.3335 329° Northwest  Level Estimated
04:56 12.5531 -71.4018 329° Northwest  Level Estimated
04:57 12.6641 -71.4702 329° Northwest  Level Estimated
04:58 12.7751 -71.5386 329° Northwest  Level Estimated
04:59 12.8860 -71.6071 329° Northwest  Level Estimated
05:00 12.9969 -71.6757 329° Northwest  Level Estimated
05:01 13.1078 -71.7443 329° Northwest  Level Estimated
05:02 13.2187 -71.8130 329° Northwest  Level Estimated
05:03 13.3296 -71.8817 329° Northwest  Level Estimated
05:04 13.4404 -71.9505 329° Northwest  Level Estimated
05:05 13.5513 -72.0194 329° Northwest  Level Estimated
05:06 13.6621 -72.0883 329° Northwest  Level Estimated
05:07 13.7729 -72.1573 329° Northwest  Level Estimated
05:08 13.8836 -72.2264 329° Northwest  Level Estimated
05:09 13.9944 -72.2955 329° Northwest  Level Estimated
05:10 14.1051 -72.3647 329° Northwest  Level Estimated
05:11 14.2158 -72.4340 329° Northwest  Level Estimated
05:12 14.3265 -72.5033 329° Northwest  Level Estimated
05:13 14.4372 -72.5727 329° Northwest  Level Estimated
05:14 14.5478 -72.6422 329° Northwest  Level Estimated
05:15 14.6585 -72.7117 329° Northwest  Level Estimated
05:16 14.7691 -72.7814 329° Northwest  Level Estimated
05:17 14.8797 -72.8510 329° Northwest  Level Estimated
05:18 14.9902 -72.9208 329° Northwest  Level Estimated
05:19 15.1008 -72.9906 329° Northwest  Level Estimated
05:20 15.2113 -73.0605 329° Northwest  Level Estimated
05:21 15.3218 -73.1305 329° Northwest  Level Estimated
05:22 15.4323 -73.2005 329° Northwest  Level Estimated
05:23 15.5428 -73.2707 329° Northwest  Level Estimated
05:24 15.6532 -73.3409 329° Northwest  Level Estimated
05:25 15.7636 -73.4111 329° Northwest  Level Estimated
05:26 15.8741 -73.4815 328° Northwest  Level Estimated
05:27 15.9844 -73.5519 328° Northwest  Level Estimated
05:28 16.0948 -73.6224 328° Northwest  Level Estimated
05:29 16.2051 -73.6930 328° Northwest  Level Estimated
05:30 16.3154 -73.7636 328° Northwest  Level Estimated
05:31 16.4257 -73.8344 328° Northwest  Level Estimated
05:32 16.5359 -73.9052 328° Northwest  Level Estimated
05:33 16.6462 -73.9761 328° Northwest  Level Estimated
05:34 16.7564 -74.0471 328° Northwest  Level Estimated
05:35 16.8666 -74.1182 328° Northwest  Level Estimated
05:36 16.9767 -74.1893 328° Northwest  Level Estimated
05:37 17.0869 -74.2605 328° Northwest  Level Estimated
05:38 17.1970 -74.3319 328° Northwest  Level Estimated
05:39 17.3071 -74.4033 328° Northwest  Level Estimated
05:40 17.4171 -74.4747 328° Northwest  Level Estimated
05:41 17.5271 -74.5463 328° Northwest  Level Estimated
05:42 17.6372 -74.6180 328° Northwest  Level Estimated
05:43 17.7471 -74.6897 328° Northwest  Level Estimated
05:44 17.8571 -74.7616 328° Northwest  Level Estimated
05:45 17.9670 -74.8335 328° Northwest  Level Estimated
05:46 18.0769 -74.9055 328° Northwest  Level Estimated
05:47 18.1868 -74.9776 328° Northwest  Level Estimated
05:48 18.2967 -75.0498 328° Northwest  Level Estimated
05:49 18.4065 -75.1221 328° Northwest  Level Estimated
05:50 18.5163 -75.1945 328° Northwest  Level Estimated
05:51 18.6261 -75.2669 328° Northwest  Level Estimated
05:52 18.7358 -75.3395 328° Northwest  Level Estimated
05:53 18.8455 -75.4122 328° Northwest  Level Estimated
05:54 18.9552 -75.4849 328° Northwest  Level Estimated
05:55 19.0648 -75.5578 328° Northwest  Level Estimated
05:56 19.1745 -75.6307 328° Northwest  Level Estimated
05:57 19.2841 -75.7038 328° Northwest  Level Estimated
05:58 19.3936 -75.7769 328° Northwest  Level Estimated
05:59 19.5032 -75.8502 328° Northwest  Level Estimated
06:00 19.6127 -75.9235 328° Northwest  Level Estimated
06:01 19.7222 -75.9969 328° Northwest  Level Estimated
06:02 19.8316 -76.0705 328° Northwest  Level Estimated
06:03 19.9410 -76.1441 328° Northwest  Level Estimated
06:04 20.0504 -76.2178 328° Northwest  Level Estimated
06:05 20.1598 -76.2917 328° Northwest  Level Estimated
06:06 20.2691 -76.3656 328° Northwest  Level Estimated
06:07 20.3784 -76.4397 328° Northwest  Level Estimated
06:08 20.4877 -76.5139 328° Northwest  Level Estimated
06:09 20.5969 -76.5881 328° Northwest  Level Estimated
06:10 20.7061 -76.6625 328° Northwest  Level Estimated
06:11 20.8153 -76.7370 327° Northwest  Level Estimated
06:12 20.9244 -76.8116 327° Northwest  Level Estimated
06:13 21.0335 -76.8863 327° Northwest  Level Estimated
06:14 21.1426 -76.9611 327° Northwest  Level Estimated
06:15 21.2516 -77.0360 327° Northwest  Level Estimated
06:16 21.3607 -77.1110 327° Northwest  Level Estimated
06:17 21.4678 -77.1849 327° Northwest  Level Estimated
06:17 22.9800 -77.8269 327° Northwest 486 559 36,000  Level Miami Center
06:18 21.5749 -77.2589 327° Northwest  Level Estimated
06:18 23.0883 -77.8911 331° Northwest 467 537 36,000  Level Miami Center
06:19 21.6820 -77.3330 327° Northwest  Level Estimated
06:19 23.1986 -77.9531 333° Northwest 455 524 36,000  Level Miami Center
06:20 21.7891 -77.4072 327° Northwest  Level Estimated
06:20 23.3089 -78.0286 328° Northwest 461 531 36,000  Level Miami Center
06:21 21.8961 -77.4815 327° Northwest  Level Estimated
06:21 23.4211 -78.0975 331° Northwest 461 531 36,000  Level Miami Center
06:22 22.0031 -77.5560 327° Northwest  Level Estimated
06:22 23.5311 -78.1642 331° Northwest 461 531 36,000  Level Miami Center
06:23 23.6475 -78.2425 328° Northwest 472 543 36,000  Level Miami Center
06:24 23.7556 -78.3097 330° Northwest 466 536 36,000  Level Miami Center
06:25 23.8719 -78.3836 330° Northwest 466 536 36,000  Level Miami Center
06:26 23.9717 -78.4461 330° Northwest 472 543 36,000  Level Miami Center
06:27 24.0794 -78.5250 326° Northwest 459 528 36,000  Level Miami Center
06:28 24.1828 -78.6061 324° Northwest 459 528 36,000  Level Miami Center
06:29 24.2864 -78.6872 324° Northwest 459 528 36,000 -900 Level Miami Center
06:30 24.3858 -78.7639 325° Northwest 452 520 34,300 -1,800 Descending Miami Center
06:31 24.4850 -78.8386 326° Northwest 438 504 32,400 -1,920 Descending Miami Center
06:32 24.5739 -78.9131 323° Northwest 425 489 30,500 -1,800 Descending Miami Center
06:33 24.6794 -78.9950 325° Northwest 425 489 28,900 -1,860 Descending Miami Center
06:39 25.2320 -79.3170 325° Northwest 364 419 17,400 -1,980 Descending FlightAware
06:40 25.2850 -79.3730 316° Northwest 363 418 15,900 -1,800 Descending FlightAware
06:40 25.3360 -79.4370 311° West 354 407 14,900 -1,380 Descending FlightAware
06:41 25.3770 -79.5000 306° West 338 389 13,900 -1,740 Descending FlightAware
06:42 25.4160 -79.5590 306° West 345 397 12,500 -1,500 Descending FlightAware
06:43 25.4540 -79.6140 307° West 343 395 11,900 -480 Descending FlightAware
06:43 25.4970 -79.6740 308° West 338 389 11,900  Level FlightAware
06:44 25.5300 -79.7200 308° West 338 389 11,900 -240 Level FlightAware
06:45 25.5770 -79.7870 308° West 308 354 11,600 -720 Descending FlightAware
06:45 25.5890 -79.8410 284° West 295 339 11,000 -1,080 Descending FlightAware
06:46 25.6050 -79.9070 285° West 287 330 10,200 -1,140 Descending FlightAware
06:47 25.6110 -79.9470 279° West 287 330 9,600 -1,320 Descending FlightAware
06:47 25.6090 -79.9840 267° West 283 326 9,000 -1,440 Descending FlightAware
06:47 25.6070 -80.0290 267° West 291 335 8,300 -1,200 Descending FlightAware
06:48 25.6130 -80.0660 280° West 282 325 7,900 -480 Descending FlightAware
06:48 25.6210 -80.0830 298° West 268 308 8,000 120 Climbing FlightAware
06:49 25.6460 -80.1160 310° West 270 311 8,000 -120 Level FlightAware
06:49 25.6630 -80.1450 303° West 268 308 7,900 -120 Descending FlightAware
06:50 25.6740 -80.1840 287° West 268 308 7,900 -120 Level FlightAware
06:50 25.6790 -80.2110 282° West 274 315 7,800 -1,320 Descending FlightAware
06:50 25.6760 -80.2620 266° West 267 307 6,700 -2,160 Descending FlightAware
06:51 25.6720 -80.3020 264° West 261 300 5,500 -1,920 Descending FlightAware
06:51 25.6710 -80.3200 266° West 250 288 5,300 -1,560 Descending FlightAware
06:52 25.6680 -80.3460 263° West 242 278 4,600 -1,680 Descending FlightAware
06:52 25.6650 -80.3870 265° West 226 260 3,800 -1,200 Descending FlightAware
06:52 25.6630 -80.4050 263° West 219 252 3,600 -780 Descending FlightAware
06:53 25.6610 -80.4320 265° West 208 239 3,300 -660 Descending FlightAware
06:53 25.6580 -80.4620 264° West 200 230 3,000 -420 Descending FlightAware
06:54 25.6640 -80.4980 280° West 201 231 2,900  Descending FlightAware
06:54 25.6930 -80.5070 344° North 193 222 3,000  Climbing FlightAware
06:55 25.7170 -80.5100 354° North 196 226 2,900 -180 Descending FlightAware
06:55 25.7310 -80.5110 356° North 196 226 2,900  Level FlightAware
06:55 25.7490 -80.5130 354° North 194 223 2,900 120 Level FlightAware
06:56 25.7690 -80.5020 26° Northeast 183 211 3,000  Climbing FlightAware
06:56 25.7780 -80.4810 65° Northeast 179 206 2,900 -720 Descending FlightAware
06:57 25.7800 -80.4630 83° East 178 205 2,500 -1,020 Descending FlightAware
06:57 25.7810 -80.4330 88° East 168 193 2,000 -960 Descending FlightAware
06:58 25.7820 -80.4050 88° East 163 188 1,500 -540 Descending FlightAware
06:58 25.7830 -80.3820 87° East 162 186 1,500 -780 Level FlightAware
06:59 25.7840 -80.3610 87° East 157 181 800 -1,200 Descending FlightAware
06:59 25.7850 -80.3420 87° East 156 180 500 -360 Descending FlightAware
06:59 25.7850 -80.3230 90° East 156 180 500  Level FlightAware